トビリシ の空港の天気 - METARとTAF

トビリシ国際空港 ( UGTB / TBS ) - ジョージア トビリシ
飛行場実況気象(Metar)
観測時間04/25 18:30 GET (04/25 14:30 UTC)
風向・風速南南東 4m/s
視程10km以上
天気現象
なし
気温19℃
湿度43%
気圧1020hPa
METARUGTB 251430Z 15008KT CAVOK 19/06 Q1020 R13R/CLRD70 NOSIG
過去の天気等 Google飛行場航空写真 Wunderground天気予報

過去48時間のMETAR

飛行場予報(TAF)
発表時間: 4/25 15:00 GET (4/25 11:00 UTC)
予報対象時間: 25日16時 GET ~ 26日16時 GET
風向・風速不定 1m/s
視程10km以上
なし
25日16時 GET ~ 25日20時 GET に一時的に
風向・風速南南東 5m/s
25日22時 GET ~ 26日6時 GET に一時的に
風向・風速北東 5m/s
TAF UGTB 251100Z 2512/2612 VRB02KT CAVOK TX26/2612Z TN10/2602Z
TEMPO 2512/2516 16010KT
TEMPO 2518/2602 05010KT